sensor_id;sensor_type;location;lat;lon;timestamp;temperature;humidity
64855;DHT22;51321;50.428;8.378;2022-09-21T00:01:05;8.10;99.90
64855;DHT22;51321;50.428;8.378;2022-09-21T00:03:27;8.10;99.90
64855;DHT22;51321;50.428;8.378;2022-09-21T00:05:49;8.10;99.90
64855;DHT22;51321;50.428;8.378;2022-09-21T00:08:13;7.90;99.90
64855;DHT22;51321;50.428;8.378;2022-09-21T00:10:35;7.90;99.90
64855;DHT22;51321;50.428;8.378;2022-09-21T00:12:59;7.80;99.90
64855;DHT22;51321;50.428;8.378;2022-09-21T00:15:22;7.80;99.90
64855;DHT22;51321;50.428;8.378;2022-09-21T00:17:45;7.80;99.90
64855;DHT22;51321;50.428;8.378;2022-09-21T00:20:08;8.00;99.90
64855;DHT22;51321;50.428;8.378;2022-09-21T00:22:29;8.10;99.90
64855;DHT22;51321;50.428;8.378;2022-09-21T00:24:52;8.20;99.90
64855;DHT22;51321;50.428;8.378;2022-09-21T00:27:14;8.30;99.90
64855;DHT22;51321;50.428;8.378;2022-09-21T00:29:37;8.20;99.90
64855;DHT22;51321;50.428;8.378;2022-09-21T00:32:00;8.20;99.90
64855;DHT22;51321;50.428;8.378;2022-09-21T00:34:22;8.10;99.90
64855;DHT22;51321;50.428;8.378;2022-09-21T00:36:44;8.00;99.90
64855;DHT22;51321;50.428;8.378;2022-09-21T00:39:08;7.80;99.90
64855;DHT22;51321;50.428;8.378;2022-09-21T00:41:31;7.80;99.90
64855;DHT22;51321;50.428;8.378;2022-09-21T00:44:27;7.80;99.90
64855;DHT22;51321;50.428;8.378;2022-09-21T00:46:54;7.80;99.90
64855;DHT22;51321;50.428;8.378;2022-09-21T00:49:16;7.70;99.90
64855;DHT22;51321;50.428;8.378;2022-09-21T00:51:38;7.70;99.90
64855;DHT22;51321;50.428;8.378;2022-09-21T00:54:02;7.60;99.90
64855;DHT22;51321;50.428;8.378;2022-09-21T00:56:26;7.60;99.90
64855;DHT22;51321;50.428;8.378;2022-09-21T00:58:50;7.60;99.90
64855;DHT22;51321;50.428;8.378;2022-09-21T01:01:13;7.60;99.90
64855;DHT22;51321;50.428;8.378;2022-09-21T01:03:39;7.60;99.90
64855;DHT22;51321;50.428;8.378;2022-09-21T01:06:05;7.50;99.90
64855;DHT22;51321;50.428;8.378;2022-09-21T01:08:27;7.60;99.90
64855;DHT22;51321;50.428;8.378;2022-09-21T01:11:03;7.60;99.90
64855;DHT22;51321;50.428;8.378;2022-09-21T01:13:33;7.70;99.90
64855;DHT22;51321;50.428;8.378;2022-09-21T01:16:04;7.70;99.90
64855;DHT22;51321;50.428;8.378;2022-09-21T01:18:34;7.80;99.90
64855;DHT22;51321;50.428;8.378;2022-09-21T01:21:16;7.80;99.90
64855;DHT22;51321;50.428;8.378;2022-09-21T01:26:36;7.80;99.90
64855;DHT22;51321;50.428;8.378;2022-09-21T01:29:16;7.80;99.90
64855;DHT22;51321;50.428;8.378;2022-09-21T01:31:41;7.80;99.90
64855;DHT22;51321;50.428;8.378;2022-09-21T01:34:10;7.80;99.90
64855;DHT22;51321;50.428;8.378;2022-09-21T01:36:36;7.80;99.90
64855;DHT22;51321;50.428;8.378;2022-09-21T01:39:02;7.90;99.90
64855;DHT22;51321;50.428;8.378;2022-09-21T01:41:30;7.80;99.90
64855;DHT22;51321;50.428;8.378;2022-09-21T01:43:57;7.90;99.90
64855;DHT22;51321;50.428;8.378;2022-09-21T01:46:27;7.90;99.90
64855;DHT22;51321;50.428;8.378;2022-09-21T01:48:53;7.60;99.90
64855;DHT22;51321;50.428;8.378;2022-09-21T01:51:18;7.40;99.90
64855;DHT22;51321;50.428;8.378;2022-09-21T01:53:43;7.40;99.90
64855;DHT22;51321;50.428;8.378;2022-09-21T01:56:10;7.30;99.90
64855;DHT22;51321;50.428;8.378;2022-09-21T01:58:36;7.40;99.90
64855;DHT22;51321;50.428;8.378;2022-09-21T02:01:00;7.40;99.90
64855;DHT22;51321;50.428;8.378;2022-09-21T02:03:28;7.30;99.90
64855;DHT22;51321;50.428;8.378;2022-09-21T02:05:52;7.30;99.90
64855;DHT22;51321;50.428;8.378;2022-09-21T02:08:14;7.20;99.90
64855;DHT22;51321;50.428;8.378;2022-09-21T02:10:42;7.20;99.90
64855;DHT22;51321;50.428;8.378;2022-09-21T02:13:06;7.10;99.90
64855;DHT22;51321;50.428;8.378;2022-09-21T02:15:33;7.10;99.90
64855;DHT22;51321;50.428;8.378;2022-09-21T02:18:04;6.90;99.90
64855;DHT22;51321;50.428;8.378;2022-09-21T02:20:32;6.90;99.90
64855;DHT22;51321;50.428;8.378;2022-09-21T02:23:04;6.90;99.90
64855;DHT22;51321;50.428;8.378;2022-09-21T02:25:40;6.80;99.90
64855;DHT22;51321;50.428;8.378;2022-09-21T02:28:07;6.80;99.90
64855;DHT22;51321;50.428;8.378;2022-09-21T02:30:34;6.80;99.90
64855;DHT22;51321;50.428;8.378;2022-09-21T02:33:01;6.60;99.90
64855;DHT22;51321;50.428;8.378;2022-09-21T02:35:33;6.70;99.90
64855;DHT22;51321;50.428;8.378;2022-09-21T02:38:06;6.60;99.90
64855;DHT22;51321;50.428;8.378;2022-09-21T02:40:33;6.50;99.90
64855;DHT22;51321;50.428;8.378;2022-09-21T02:43:00;6.40;99.90
64855;DHT22;51321;50.428;8.378;2022-09-21T02:45:26;6.40;99.90
64855;DHT22;51321;50.428;8.378;2022-09-21T02:47:51;6.40;99.90
64855;DHT22;51321;50.428;8.378;2022-09-21T02:50:19;6.60;99.90
64855;DHT22;51321;50.428;8.378;2022-09-21T02:52:46;6.60;99.90
64855;DHT22;51321;50.428;8.378;2022-09-21T02:55:09;6.60;99.90
64855;DHT22;51321;50.428;8.378;2022-09-21T02:57:31;6.70;99.90
64855;DHT22;51321;50.428;8.378;2022-09-21T02:59:53;6.80;99.90
64855;DHT22;51321;50.428;8.378;2022-09-21T03:02:15;7.00;99.90
64855;DHT22;51321;50.428;8.378;2022-09-21T03:04:38;7.00;99.90
64855;DHT22;51321;50.428;8.378;2022-09-21T03:07:00;7.00;99.90
64855;DHT22;51321;50.428;8.378;2022-09-21T03:09:24;7.00;99.90
64855;DHT22;51321;50.428;8.378;2022-09-21T03:11:46;6.90;99.90
64855;DHT22;51321;50.428;8.378;2022-09-21T03:14:08;7.00;99.90
64855;DHT22;51321;50.428;8.378;2022-09-21T03:16:30;7.00;99.90
64855;DHT22;51321;50.428;8.378;2022-09-21T03:18:52;6.80;99.90
64855;DHT22;51321;50.428;8.378;2022-09-21T03:21:14;6.80;99.90
64855;DHT22;51321;50.428;8.378;2022-09-21T03:23:37;6.70;99.90
64855;DHT22;51321;50.428;8.378;2022-09-21T03:26:00;6.70;99.90
64855;DHT22;51321;50.428;8.378;2022-09-21T03:28:22;6.70;99.90
64855;DHT22;51321;50.428;8.378;2022-09-21T03:30:46;6.60;99.90
64855;DHT22;51321;50.428;8.378;2022-09-21T03:33:09;6.50;99.90
64855;DHT22;51321;50.428;8.378;2022-09-21T03:35:32;6.40;99.90
64855;DHT22;51321;50.428;8.378;2022-09-21T03:37:54;6.30;99.90
64855;DHT22;51321;50.428;8.378;2022-09-21T03:40:17;6.20;99.90
64855;DHT22;51321;50.428;8.378;2022-09-21T03:42:42;6.20;99.90
64855;DHT22;51321;50.428;8.378;2022-09-21T03:45:06;6.10;99.90
64855;DHT22;51321;50.428;8.378;2022-09-21T03:47:28;6.20;99.90
64855;DHT22;51321;50.428;8.378;2022-09-21T03:49:50;6.40;99.90
64855;DHT22;51321;50.428;8.378;2022-09-21T03:52:13;6.50;99.90
64855;DHT22;51321;50.428;8.378;2022-09-21T03:54:35;6.50;99.90
64855;DHT22;51321;50.428;8.378;2022-09-21T03:56:57;6.50;99.90
64855;DHT22;51321;50.428;8.378;2022-09-21T03:59:20;6.40;99.90
64855;DHT22;51321;50.428;8.378;2022-09-21T04:01:42;6.50;99.90
64855;DHT22;51321;50.428;8.378;2022-09-21T04:04:04;6.60;99.90
64855;DHT22;51321;50.428;8.378;2022-09-21T04:06:26;6.70;99.90
64855;DHT22;51321;50.428;8.378;2022-09-21T04:08:48;6.80;99.90
64855;DHT22;51321;50.428;8.378;2022-09-21T04:11:13;6.90;99.90
64855;DHT22;51321;50.428;8.378;2022-09-21T04:13:35;6.80;99.90
64855;DHT22;51321;50.428;8.378;2022-09-21T04:15:58;6.70;99.90
64855;DHT22;51321;50.428;8.378;2022-09-21T04:18:21;6.70;99.90
64855;DHT22;51321;50.428;8.378;2022-09-21T04:20:42;6.70;99.90
64855;DHT22;51321;50.428;8.378;2022-09-21T04:23:05;6.70;99.90
64855;DHT22;51321;50.428;8.378;2022-09-21T04:25:28;6.50;99.90
64855;DHT22;51321;50.428;8.378;2022-09-21T04:27:50;6.40;99.90
64855;DHT22;51321;50.428;8.378;2022-09-21T04:30:13;6.50;99.90
64855;DHT22;51321;50.428;8.378;2022-09-21T04:32:37;6.30;99.90
64855;DHT22;51321;50.428;8.378;2022-09-21T04:34:59;6.30;99.90
64855;DHT22;51321;50.428;8.378;2022-09-21T04:37:21;6.30;99.90
64855;DHT22;51321;50.428;8.378;2022-09-21T04:39:43;6.30;99.90
64855;DHT22;51321;50.428;8.378;2022-09-21T04:42:05;6.20;99.90
64855;DHT22;51321;50.428;8.378;2022-09-21T04:44:27;6.10;99.90
64855;DHT22;51321;50.428;8.378;2022-09-21T04:46:50;6.10;99.90
64855;DHT22;51321;50.428;8.378;2022-09-21T04:49:13;6.00;99.90
64855;DHT22;51321;50.428;8.378;2022-09-21T04:51:36;6.00;99.90
64855;DHT22;51321;50.428;8.378;2022-09-21T04:53:58;6.00;99.90
64855;DHT22;51321;50.428;8.378;2022-09-21T04:56:20;6.00;99.90
64855;DHT22;51321;50.428;8.378;2022-09-21T04:58:43;6.00;99.90
64855;DHT22;51321;50.428;8.378;2022-09-21T05:01:05;6.10;99.90
64855;DHT22;51321;50.428;8.378;2022-09-21T05:03:27;6.20;99.90
64855;DHT22;51321;50.428;8.378;2022-09-21T05:05:52;6.20;99.90
64855;DHT22;51321;50.428;8.378;2022-09-21T05:08:15;6.20;99.90
64855;DHT22;51321;50.428;8.378;2022-09-21T05:10:36;6.10;99.90
64855;DHT22;51321;50.428;8.378;2022-09-21T05:12:57;6.20;99.90
64855;DHT22;51321;50.428;8.378;2022-09-21T05:15:19;6.10;99.90
64855;DHT22;51321;50.428;8.378;2022-09-21T05:17:41;6.10;99.90
64855;DHT22;51321;50.428;8.378;2022-09-21T05:20:04;6.10;99.90
64855;DHT22;51321;50.428;8.378;2022-09-21T05:22:28;6.00;99.90
64855;DHT22;51321;50.428;8.378;2022-09-21T05:24:50;6.00;99.90
64855;DHT22;51321;50.428;8.378;2022-09-21T05:27:12;6.00;99.90
64855;DHT22;51321;50.428;8.378;2022-09-21T05:29:35;5.90;99.90
64855;DHT22;51321;50.428;8.378;2022-09-21T05:32:01;5.80;99.90
64855;DHT22;51321;50.428;8.378;2022-09-21T05:34:39;5.90;99.90
64855;DHT22;51321;50.428;8.378;2022-09-21T05:37:09;5.90;99.90
64855;DHT22;51321;50.428;8.378;2022-09-21T05:39:37;6.00;99.90
64855;DHT22;51321;50.428;8.378;2022-09-21T05:42:01;6.00;99.90
64855;DHT22;51321;50.428;8.378;2022-09-21T05:44:23;6.00;99.90
64855;DHT22;51321;50.428;8.378;2022-09-21T05:46:48;6.00;99.90
64855;DHT22;51321;50.428;8.378;2022-09-21T05:49:16;6.10;99.90
64855;DHT22;51321;50.428;8.378;2022-09-21T05:51:48;6.00;99.90
64855;DHT22;51321;50.428;8.378;2022-09-21T05:54:19;6.10;99.90
64855;DHT22;51321;50.428;8.378;2022-09-21T05:56:49;6.30;99.90
64855;DHT22;51321;50.428;8.378;2022-09-21T05:59:29;6.20;99.90
64855;DHT22;51321;50.428;8.378;2022-09-21T06:01:57;6.30;99.90
64855;DHT22;51321;50.428;8.378;2022-09-21T06:04:22;6.50;99.90
64855;DHT22;51321;50.428;8.378;2022-09-21T06:06:44;6.70;99.90
64855;DHT22;51321;50.428;8.378;2022-09-21T06:09:07;6.70;99.90
64855;DHT22;51321;50.428;8.378;2022-09-21T06:11:29;6.60;99.90
64855;DHT22;51321;50.428;8.378;2022-09-21T06:13:52;6.60;99.90
64855;DHT22;51321;50.428;8.378;2022-09-21T06:16:14;6.50;99.90
64855;DHT22;51321;50.428;8.378;2022-09-21T06:18:37;6.40;99.90
64855;DHT22;51321;50.428;8.378;2022-09-21T06:20:59;6.50;99.90
64855;DHT22;51321;50.428;8.378;2022-09-21T06:23:21;6.40;99.90
64855;DHT22;51321;50.428;8.378;2022-09-21T06:25:43;6.40;99.90
64855;DHT22;51321;50.428;8.378;2022-09-21T06:28:07;6.50;99.90
64855;DHT22;51321;50.428;8.378;2022-09-21T06:30:31;6.30;99.90
64855;DHT22;51321;50.428;8.378;2022-09-21T06:32:58;6.30;99.90
64855;DHT22;51321;50.428;8.378;2022-09-21T06:35:19;6.30;99.90
64855;DHT22;51321;50.428;8.378;2022-09-21T06:37:41;6.50;99.90
64855;DHT22;51321;50.428;8.378;2022-09-21T06:40:04;6.50;99.90
64855;DHT22;51321;50.428;8.378;2022-09-21T06:42:26;6.50;99.90
64855;DHT22;51321;50.428;8.378;2022-09-21T06:44:48;6.70;99.90
64855;DHT22;51321;50.428;8.378;2022-09-21T06:47:12;6.70;99.90
64855;DHT22;51321;50.428;8.378;2022-09-21T06:49:34;6.70;99.90
64855;DHT22;51321;50.428;8.378;2022-09-21T06:51:56;6.90;99.90
64855;DHT22;51321;50.428;8.378;2022-09-21T06:54:17;7.00;99.90
64855;DHT22;51321;50.428;8.378;2022-09-21T06:56:39;6.80;99.90
64855;DHT22;51321;50.428;8.378;2022-09-21T06:59:02;6.80;99.90
64855;DHT22;51321;50.428;8.378;2022-09-21T07:01:24;7.00;99.90
64855;DHT22;51321;50.428;8.378;2022-09-21T07:03:50;7.00;99.90
64855;DHT22;51321;50.428;8.378;2022-09-21T07:06:12;7.00;99.90
64855;DHT22;51321;50.428;8.378;2022-09-21T07:08:35;7.20;99.90
64855;DHT22;51321;50.428;8.378;2022-09-21T07:10:57;7.20;99.90
64855;DHT22;51321;50.428;8.378;2022-09-21T07:13:19;7.30;99.90
64855;DHT22;51321;50.428;8.378;2022-09-21T07:15:42;7.10;99.90
64855;DHT22;51321;50.428;8.378;2022-09-21T07:18:10;7.00;99.90
64855;DHT22;51321;50.428;8.378;2022-09-21T07:20:34;7.00;99.90
64855;DHT22;51321;50.428;8.378;2022-09-21T07:22:56;7.10;99.90
64855;DHT22;51321;50.428;8.378;2022-09-21T07:25:18;7.20;99.90
64855;DHT22;51321;50.428;8.378;2022-09-21T07:27:40;7.50;99.90
64855;DHT22;51321;50.428;8.378;2022-09-21T07:30:02;7.50;99.90
64855;DHT22;51321;50.428;8.378;2022-09-21T07:32:25;7.50;99.90
64855;DHT22;51321;50.428;8.378;2022-09-21T07:34:47;7.60;99.90
64855;DHT22;51321;50.428;8.378;2022-09-21T07:37:11;7.50;99.90
64855;DHT22;51321;50.428;8.378;2022-09-21T07:39:33;7.60;99.90
64855;DHT22;51321;50.428;8.378;2022-09-21T07:41:55;7.70;99.90
64855;DHT22;51321;50.428;8.378;2022-09-21T07:44:18;7.80;99.90
64855;DHT22;51321;50.428;8.378;2022-09-21T07:46:40;7.90;99.90
64855;DHT22;51321;50.428;8.378;2022-09-21T07:49:02;7.80;99.90
64855;DHT22;51321;50.428;8.378;2022-09-21T07:51:25;7.80;99.90
64855;DHT22;51321;50.428;8.378;2022-09-21T07:53:53;7.90;99.90
64855;DHT22;51321;50.428;8.378;2022-09-21T07:56:16;8.00;99.90
64855;DHT22;51321;50.428;8.378;2022-09-21T07:58:39;8.20;99.90
64855;DHT22;51321;50.428;8.378;2022-09-21T08:01:19;8.20;99.90
64855;DHT22;51321;50.428;8.378;2022-09-21T08:03:41;8.30;99.90
64855;DHT22;51321;50.428;8.378;2022-09-21T08:06:03;8.50;99.90
64855;DHT22;51321;50.428;8.378;2022-09-21T08:08:26;8.50;99.90
64855;DHT22;51321;50.428;8.378;2022-09-21T08:10:50;8.40;99.90
64855;DHT22;51321;50.428;8.378;2022-09-21T08:13:12;8.30;99.90
64855;DHT22;51321;50.428;8.378;2022-09-21T08:15:34;8.50;99.90
64855;DHT22;51321;50.428;8.378;2022-09-21T08:17:56;8.60;99.90
64855;DHT22;51321;50.428;8.378;2022-09-21T08:20:19;8.70;99.90
64855;DHT22;51321;50.428;8.378;2022-09-21T08:22:41;8.70;99.90
64855;DHT22;51321;50.428;8.378;2022-09-21T08:25:03;8.70;99.90
64855;DHT22;51321;50.428;8.378;2022-09-21T08:27:27;8.80;99.90
64855;DHT22;51321;50.428;8.378;2022-09-21T08:29:50;8.90;99.90
64855;DHT22;51321;50.428;8.378;2022-09-21T08:32:12;9.00;99.90
64855;DHT22;51321;50.428;8.378;2022-09-21T08:34:34;9.10;99.90
64855;DHT22;51321;50.428;8.378;2022-09-21T08:36:56;9.20;99.90
64855;DHT22;51321;50.428;8.378;2022-09-21T08:39:17;9.40;99.90
64855;DHT22;51321;50.428;8.378;2022-09-21T08:41:54;9.50;99.90
64855;DHT22;51321;50.428;8.378;2022-09-21T08:44:23;9.70;99.90
64855;DHT22;51321;50.428;8.378;2022-09-21T08:46:51;9.80;99.90
64855;DHT22;51321;50.428;8.378;2022-09-21T08:49:16;9.90;99.90
64855;DHT22;51321;50.428;8.378;2022-09-21T08:51:48;9.90;99.90
64855;DHT22;51321;50.428;8.378;2022-09-21T08:54:19;10.10;99.90
64855;DHT22;51321;50.428;8.378;2022-09-21T08:56:44;10.20;99.90
64855;DHT22;51321;50.428;8.378;2022-09-21T08:59:10;10.30;99.90
64855;DHT22;51321;50.428;8.378;2022-09-21T09:01:47;10.50;99.90
64855;DHT22;51321;50.428;8.378;2022-09-21T09:04:27;10.50;99.90
64855;DHT22;51321;50.428;8.378;2022-09-21T09:06:58;10.70;99.90
64855;DHT22;51321;50.428;8.378;2022-09-21T09:09:31;11.00;99.90
64855;DHT22;51321;50.428;8.378;2022-09-21T09:12:11;11.20;99.90
64855;DHT22;51321;50.428;8.378;2022-09-21T09:14:48;11.40;99.90
64855;DHT22;51321;50.428;8.378;2022-09-21T09:17:32;11.50;99.90
64855;DHT22;51321;50.428;8.378;2022-09-21T09:20:00;11.70;99.90
64855;DHT22;51321;50.428;8.378;2022-09-21T09:22:28;11.80;99.90
64855;DHT22;51321;50.428;8.378;2022-09-21T09:24:51;11.90;99.90
64855;DHT22;51321;50.428;8.378;2022-09-21T09:27:19;12.00;99.90
64855;DHT22;51321;50.428;8.378;2022-09-21T09:29:47;12.30;99.90
64855;DHT22;51321;50.428;8.378;2022-09-21T09:32:13;12.40;99.90
64855;DHT22;51321;50.428;8.378;2022-09-21T09:34:42;12.70;99.90
64855;DHT22;51321;50.428;8.378;2022-09-21T09:37:10;12.90;99.90
64855;DHT22;51321;50.428;8.378;2022-09-21T09:39:33;13.00;99.90
64855;DHT22;51321;50.428;8.378;2022-09-21T09:42:03;13.30;99.90
64855;DHT22;51321;50.428;8.378;2022-09-21T09:44:38;13.60;99.90
64855;DHT22;51321;50.428;8.378;2022-09-21T09:47:09;13.80;99.90
64855;DHT22;51321;50.428;8.378;2022-09-21T09:49:52;14.20;99.90
64855;DHT22;51321;50.428;8.378;2022-09-21T09:52:18;14.50;99.90
64855;DHT22;51321;50.428;8.378;2022-09-21T09:54:40;14.60;99.90
64855;DHT22;51321;50.428;8.378;2022-09-21T09:57:03;14.60;99.90
64855;DHT22;51321;50.428;8.378;2022-09-21T09:59:33;14.80;99.90
64855;DHT22;51321;50.428;8.378;2022-09-21T10:02:01;15.00;99.90
64855;DHT22;51321;50.428;8.378;2022-09-21T10:04:23;15.00;99.90
64855;DHT22;51321;50.428;8.378;2022-09-21T10:06:47;15.20;99.90
64855;DHT22;51321;50.428;8.378;2022-09-21T10:09:22;15.30;99.90
64855;DHT22;51321;50.428;8.378;2022-09-21T10:11:45;15.40;99.90
64855;DHT22;51321;50.428;8.378;2022-09-21T10:14:11;15.40;99.90
64855;DHT22;51321;50.428;8.378;2022-09-21T10:16:39;15.10;99.90
64855;DHT22;51321;50.428;8.378;2022-09-21T10:19:02;15.10;99.90
64855;DHT22;51321;50.428;8.378;2022-09-21T10:21:26;15.10;99.90
64855;DHT22;51321;50.428;8.378;2022-09-21T10:23:57;15.20;99.90
64855;DHT22;51321;50.428;8.378;2022-09-21T10:26:20;15.20;99.90
64855;DHT22;51321;50.428;8.378;2022-09-21T10:28:55;15.10;99.90
64855;DHT22;51321;50.428;8.378;2022-09-21T10:31:21;15.10;99.90
64855;DHT22;51321;50.428;8.378;2022-09-21T10:33:50;15.10;99.90
64855;DHT22;51321;50.428;8.378;2022-09-21T10:36:25;14.80;99.90
64855;DHT22;51321;50.428;8.378;2022-09-21T10:38:48;14.80;99.90
64855;DHT22;51321;50.428;8.378;2022-09-21T10:41:12;14.70;99.90
64855;DHT22;51321;50.428;8.378;2022-09-21T10:43:39;14.80;99.90
64855;DHT22;51321;50.428;8.378;2022-09-21T10:46:04;14.80;99.90
64855;DHT22;51321;50.428;8.378;2022-09-21T10:48:27;14.80;99.90
64855;DHT22;51321;50.428;8.378;2022-09-21T10:50:50;15.00;99.90
64855;DHT22;51321;50.428;8.378;2022-09-21T10:53:18;15.00;99.90
64855;DHT22;51321;50.428;8.378;2022-09-21T10:55:47;15.00;99.90
64855;DHT22;51321;50.428;8.378;2022-09-21T10:58:14;14.90;99.90
64855;DHT22;51321;50.428;8.378;2022-09-21T11:00:41;15.10;99.90
64855;DHT22;51321;50.428;8.378;2022-09-21T11:03:35;15.20;99.70
64855;DHT22;51321;50.428;8.378;2022-09-21T11:06:03;15.40;99.90
64855;DHT22;51321;50.428;8.378;2022-09-21T11:08:31;15.50;98.70
64855;DHT22;51321;50.428;8.378;2022-09-21T11:11:05;15.60;99.00
64855;DHT22;51321;50.428;8.378;2022-09-21T11:13:33;15.60;98.50
64855;DHT22;51321;50.428;8.378;2022-09-21T11:16:00;15.80;97.90
64855;DHT22;51321;50.428;8.378;2022-09-21T11:18:34;16.00;98.20
64855;DHT22;51321;50.428;8.378;2022-09-21T11:21:00;16.40;98.00
64855;DHT22;51321;50.428;8.378;2022-09-21T11:23:37;16.20;96.30
64855;DHT22;51321;50.428;8.378;2022-09-21T11:26:08;16.00;94.80
64855;DHT22;51321;50.428;8.378;2022-09-21T11:28:36;16.20;96.60
64855;DHT22;51321;50.428;8.378;2022-09-21T11:31:28;16.30;96.40
64855;DHT22;51321;50.428;8.378;2022-09-21T11:34:10;16.20;94.90
64855;DHT22;51321;50.428;8.378;2022-09-21T11:36:42;15.90;94.00
64855;DHT22;51321;50.428;8.378;2022-09-21T11:39:17;15.30;94.40
64855;DHT22;51321;50.428;8.378;2022-09-21T11:44:38;15.40;95.80
64855;DHT22;51321;50.428;8.378;2022-09-21T11:47:11;15.80;96.00
64855;DHT22;51321;50.428;8.378;2022-09-21T11:50:04;16.00;95.50
64855;DHT22;51321;50.428;8.378;2022-09-21T11:52:40;16.00;94.70
64855;DHT22;51321;50.428;8.378;2022-09-21T11:55:19;16.30;96.10
64855;DHT22;51321;50.428;8.378;2022-09-21T11:57:48;16.50;94.60
64855;DHT22;51321;50.428;8.378;2022-09-21T12:00:13;16.60;93.80
64855;DHT22;51321;50.428;8.378;2022-09-21T12:03:06;16.50;94.00
64855;DHT22;51321;50.428;8.378;2022-09-21T12:05:39;16.30;92.90
64855;DHT22;51321;50.428;8.378;2022-09-21T12:08:17;16.40;92.30
64855;DHT22;51321;50.428;8.378;2022-09-21T12:10:47;16.50;92.70
64855;DHT22;51321;50.428;8.378;2022-09-21T12:13:22;16.90;92.40
64855;DHT22;51321;50.428;8.378;2022-09-21T12:15:54;17.20;92.40
64855;DHT22;51321;50.428;8.378;2022-09-21T12:18:22;17.10;91.00
64855;DHT22;51321;50.428;8.378;2022-09-21T12:20:47;17.10;90.30
64855;DHT22;51321;50.428;8.378;2022-09-21T12:23:15;17.00;91.80
64855;DHT22;51321;50.428;8.378;2022-09-21T12:25:40;17.00;91.80
64855;DHT22;51321;50.428;8.378;2022-09-21T12:28:09;17.00;93.50
64855;DHT22;51321;50.428;8.378;2022-09-21T12:30:34;17.30;92.40
64855;DHT22;51321;50.428;8.378;2022-09-21T12:33:03;17.20;92.10
64855;DHT22;51321;50.428;8.378;2022-09-21T12:35:31;17.50;91.20
64855;DHT22;51321;50.428;8.378;2022-09-21T12:37:58;17.20;89.40
64855;DHT22;51321;50.428;8.378;2022-09-21T12:40:27;17.00;91.40
64855;DHT22;51321;50.428;8.378;2022-09-21T12:42:56;16.90;91.00
64855;DHT22;51321;50.428;8.378;2022-09-21T12:45:26;16.80;91.10
64855;DHT22;51321;50.428;8.378;2022-09-21T12:47:54;17.00;92.40
64855;DHT22;51321;50.428;8.378;2022-09-21T12:50:24;17.30;91.80
64855;DHT22;51321;50.428;8.378;2022-09-21T12:52:48;17.40;91.00
64855;DHT22;51321;50.428;8.378;2022-09-21T12:55:23;17.50;92.50
64855;DHT22;51321;50.428;8.378;2022-09-21T12:57:53;17.10;91.20
64855;DHT22;51321;50.428;8.378;2022-09-21T13:00:19;17.10;91.00
64855;DHT22;51321;50.428;8.378;2022-09-21T13:02:45;17.10;89.10
64855;DHT22;51321;50.428;8.378;2022-09-21T13:05:13;17.00;87.70
64855;DHT22;51321;50.428;8.378;2022-09-21T13:10:44;16.70;83.50
64855;DHT22;51321;50.428;8.378;2022-09-21T13:13:17;16.60;82.30
64855;DHT22;51321;50.428;8.378;2022-09-21T13:15:42;16.60;85.30
64855;DHT22;51321;50.428;8.378;2022-09-21T13:18:13;16.80;84.60
64855;DHT22;51321;50.428;8.378;2022-09-21T13:20:39;16.80;80.60
64855;DHT22;51321;50.428;8.378;2022-09-21T13:23:03;16.90;82.10
64855;DHT22;51321;50.428;8.378;2022-09-21T13:25:26;16.70;81.90
64855;DHT22;51321;50.428;8.378;2022-09-21T13:27:59;16.50;82.20
64855;DHT22;51321;50.428;8.378;2022-09-21T13:30:29;16.40;83.70
64855;DHT22;51321;50.428;8.378;2022-09-21T13:32:52;16.70;86.70
64855;DHT22;51321;50.428;8.378;2022-09-21T13:35:50;17.00;86.90
64855;DHT22;51321;50.428;8.378;2022-09-21T13:38:24;17.10;84.70
64855;DHT22;51321;50.428;8.378;2022-09-21T13:40:51;17.10;84.10
64855;DHT22;51321;50.428;8.378;2022-09-21T13:43:22;17.30;83.10
64855;DHT22;51321;50.428;8.378;2022-09-21T13:45:54;17.50;82.30
64855;DHT22;51321;50.428;8.378;2022-09-21T13:48:19;17.70;83.50
64855;DHT22;51321;50.428;8.378;2022-09-21T13:50:44;17.80;81.80
64855;DHT22;51321;50.428;8.378;2022-09-21T13:53:15;17.80;82.90
64855;DHT22;51321;50.428;8.378;2022-09-21T13:55:48;17.80;84.90
64855;DHT22;51321;50.428;8.378;2022-09-21T13:58:19;17.70;81.80
64855;DHT22;51321;50.428;8.378;2022-09-21T14:00:50;17.60;82.30
64855;DHT22;51321;50.428;8.378;2022-09-21T14:03:21;17.50;79.90
64855;DHT22;51321;50.428;8.378;2022-09-21T14:05:45;17.60;82.50
64855;DHT22;51321;50.428;8.378;2022-09-21T14:08:19;17.50;80.10
64855;DHT22;51321;50.428;8.378;2022-09-21T14:10:50;17.30;78.50
64855;DHT22;51321;50.428;8.378;2022-09-21T14:13:25;17.00;77.90
64855;DHT22;51321;50.428;8.378;2022-09-21T14:15:49;17.00;80.40
64855;DHT22;51321;50.428;8.378;2022-09-21T14:18:35;16.80;78.70
64855;DHT22;51321;50.428;8.378;2022-09-21T14:21:12;16.70;79.00
64855;DHT22;51321;50.428;8.378;2022-09-21T14:23:38;16.80;78.80
64855;DHT22;51321;50.428;8.378;2022-09-21T14:26:18;16.70;77.80
64855;DHT22;51321;50.428;8.378;2022-09-21T14:28:43;16.70;76.90
64855;DHT22;51321;50.428;8.378;2022-09-21T14:31:12;16.60;78.20
64855;DHT22;51321;50.428;8.378;2022-09-21T14:33:43;16.50;79.60
64855;DHT22;51321;50.428;8.378;2022-09-21T14:36:08;16.40;79.20
64855;DHT22;51321;50.428;8.378;2022-09-21T14:38:37;16.30;80.10
64855;DHT22;51321;50.428;8.378;2022-09-21T14:41:05;16.20;80.00
64855;DHT22;51321;50.428;8.378;2022-09-21T14:43:30;16.10;81.30
64855;DHT22;51321;50.428;8.378;2022-09-21T14:48:44;15.90;83.50
64855;DHT22;51321;50.428;8.378;2022-09-21T14:51:15;16.00;84.10
64855;DHT22;51321;50.428;8.378;2022-09-21T14:53:56;15.90;85.40
64855;DHT22;51321;50.428;8.378;2022-09-21T14:56:33;16.00;85.30
64855;DHT22;51321;50.428;8.378;2022-09-21T14:59:11;16.00;84.40
64855;DHT22;51321;50.428;8.378;2022-09-21T15:01:37;16.10;85.10
64855;DHT22;51321;50.428;8.378;2022-09-21T15:07:02;16.20;82.10
64855;DHT22;51321;50.428;8.378;2022-09-21T15:09:59;16.10;78.00
64855;DHT22;51321;50.428;8.378;2022-09-21T15:12:46;16.10;80.50
64855;DHT22;51321;50.428;8.378;2022-09-21T15:15:31;16.10;79.20
64855;DHT22;51321;50.428;8.378;2022-09-21T15:17:57;16.00;80.30
64855;DHT22;51321;50.428;8.378;2022-09-21T15:20:21;16.00;81.00
64855;DHT22;51321;50.428;8.378;2022-09-21T15:22:44;15.90;82.50
64855;DHT22;51321;50.428;8.378;2022-09-21T15:25:11;15.80;81.40
64855;DHT22;51321;50.428;8.378;2022-09-21T15:27:34;15.80;81.70
64855;DHT22;51321;50.428;8.378;2022-09-21T15:30:00;15.70;82.90
64855;DHT22;51321;50.428;8.378;2022-09-21T15:32:34;15.70;81.60
64855;DHT22;51321;50.428;8.378;2022-09-21T15:34:57;15.70;81.20
64855;DHT22;51321;50.428;8.378;2022-09-21T15:37:21;15.70;80.30
64855;DHT22;51321;50.428;8.378;2022-09-21T15:39:43;15.70;81.70
64855;DHT22;51321;50.428;8.378;2022-09-21T15:42:19;15.60;82.10
64855;DHT22;51321;50.428;8.378;2022-09-21T15:44:42;15.60;81.90
64855;DHT22;51321;50.428;8.378;2022-09-21T15:47:10;15.60;84.30
64855;DHT22;51321;50.428;8.378;2022-09-21T15:49:34;15.60;85.00
64855;DHT22;51321;50.428;8.378;2022-09-21T15:51:59;15.60;85.40